createdAt,value
2019-05-16T00:00:30.713Z,1014.65
2019-05-16T00:01:30.722Z,1014.64
2019-05-16T00:02:30.700Z,1014.59
2019-05-16T00:03:30.680Z,1014.62
2019-05-16T00:04:30.668Z,1014.53
2019-05-16T00:05:30.656Z,1014.53
2019-05-16T00:06:30.647Z,1014.59
2019-05-16T00:07:30.643Z,1014.47
2019-05-16T00:08:30.625Z,1014.45
2019-05-16T00:09:30.613Z,1014.44
2019-05-16T00:10:30.625Z,1014.42
2019-05-16T00:11:30.591Z,1014.39
2019-05-16T00:12:30.587Z,1014.38
2019-05-16T00:13:30.569Z,1014.41
2019-05-16T00:14:30.560Z,1014.35
2019-05-16T00:15:30.555Z,1014.32
2019-05-16T00:16:30.536Z,1014.37
2019-05-16T00:17:30.534Z,1014.35
2019-05-16T00:18:30.516Z,1014.28
2019-05-16T00:19:30.505Z,1014.29
2019-05-16T00:20:30.491Z,1014.23
2019-05-16T00:21:30.482Z,1014.28
2019-05-16T00:22:30.477Z,1014.26
2019-05-16T00:23:30.458Z,1014.23
2019-05-16T00:24:30.448Z,1014.16
2019-05-16T00:25:30.437Z,1014.19
2019-05-16T00:26:30.425Z,1014.14
2019-05-16T00:27:30.423Z,1014.09
2019-05-16T00:28:30.410Z,1014.10
2019-05-16T00:29:30.393Z,1014.06
2019-05-16T00:30:30.381Z,1014.09
2019-05-16T00:31:30.374Z,1014.02
2019-05-16T00:32:30.369Z,1014.00
2019-05-16T00:33:30.355Z,1014.03
2019-05-16T00:34:30.337Z,1014.01
2019-05-16T00:35:30.328Z,1014.01
2019-05-16T00:36:30.317Z,1013.98
2019-05-16T00:37:30.322Z,1013.98
2019-05-16T00:38:30.293Z,1013.96
2019-05-16T00:39:30.283Z,1013.97
2019-05-16T00:40:30.271Z,1013.95
2019-05-16T00:41:30.260Z,1013.94
2019-05-16T00:42:30.282Z,1013.96
2019-05-16T00:43:30.239Z,1013.92
2019-05-16T00:44:30.228Z,1013.91
2019-05-16T00:45:30.216Z,1013.88
2019-05-16T00:46:30.210Z,1013.84
2019-05-16T00:47:30.199Z,1013.81
2019-05-16T00:48:30.191Z,1013.84
2019-05-16T00:49:30.172Z,1013.81
2019-05-16T00:50:30.164Z,1013.79
2019-05-16T00:51:30.150Z,1013.78
2019-05-16T00:52:30.139Z,1013.71
2019-05-16T00:53:30.138Z,1013.64
2019-05-16T00:54:30.117Z,1013.65
2019-05-16T00:55:30.109Z,1013.61
2019-05-16T00:56:30.104Z,1013.64
2019-05-16T00:57:30.083Z,1013.56
2019-05-16T00:58:30.081Z,1013.52
2019-05-16T00:59:30.062Z,1013.50
2019-05-16T01:00:30.051Z,1013.51
2019-05-16T01:01:30.040Z,1013.45
2019-05-16T01:02:30.029Z,1013.45
2019-05-16T01:03:30.027Z,1013.42
2019-05-16T01:04:30.008Z,1013.43
2019-05-16T01:05:29.996Z,1013.41
2019-05-16T01:06:29.985Z,1013.39
2019-05-16T01:07:29.974Z,1013.35
2019-05-16T01:08:29.972Z,1013.37
2019-05-16T01:09:29.958Z,1013.33
2019-05-16T01:10:29.942Z,1013.35
2019-05-16T01:11:29.932Z,1013.34
2019-05-16T01:12:29.919Z,1013.35
2019-05-16T01:13:29.918Z,1013.24
2019-05-16T01:14:29.897Z,1013.25
2019-05-16T01:15:29.887Z,1013.25
2019-05-16T01:16:29.876Z,1013.22
2019-05-16T01:17:29.866Z,1013.22
2019-05-16T01:18:29.865Z,1013.20
2019-05-16T01:19:29.843Z,1013.20
2019-05-16T01:20:29.833Z,1013.19
2019-05-16T01:21:29.822Z,1013.16
2019-05-16T01:22:29.810Z,1013.13
2019-05-16T01:23:29.814Z,1013.10
2019-05-16T01:24:29.789Z,1013.02
2019-05-16T01:25:29.778Z,1013.06
2019-05-16T01:26:29.766Z,1013.02
2019-05-16T01:27:29.756Z,1013.00
2019-05-16T01:28:29.755Z,1012.98
2019-05-16T01:29:29.733Z,1012.99
2019-05-16T01:30:29.730Z,1012.94
2019-05-16T01:31:29.710Z,1012.93
2019-05-16T01:32:32.115Z,1012.89
2019-05-16T01:33:29.697Z,1012.92
2019-05-16T01:34:29.679Z,1012.92
2019-05-16T01:35:29.668Z,1012.85
2019-05-16T01:36:36.877Z,1012.91
2019-05-16T01:37:30.644Z,1012.83
2019-05-16T01:38:29.642Z,1012.90
2019-05-16T01:39:29.624Z,1012.83
2019-05-16T01:40:29.614Z,1012.84
2019-05-16T01:41:29.604Z,1012.77
2019-05-16T01:42:29.591Z,1012.76
2019-05-16T01:43:29.589Z,1012.74
2019-05-16T01:44:29.578Z,1012.76
2019-05-16T01:45:29.559Z,1012.73
2019-05-16T01:46:29.554Z,1012.72
2019-05-16T01:47:29.536Z,1012.76
2019-05-16T01:48:29.554Z,1012.73
2019-05-16T01:49:29.516Z,1012.73
2019-05-16T01:50:29.504Z,1012.68
2019-05-16T01:51:29.495Z,1012.67
2019-05-16T01:52:29.482Z,1012.60
2019-05-16T01:53:29.475Z,1012.58
2019-05-16T01:54:29.469Z,1012.58
2019-05-16T01:55:29.449Z,1012.58
2019-05-16T01:56:29.439Z,1012.62
2019-05-16T01:57:29.428Z,1012.52
2019-05-16T01:58:29.418Z,1012.59
2019-05-16T01:59:29.415Z,1012.52
2019-05-16T02:00:36.820Z,1012.47
2019-05-16T02:01:30.384Z,1012.50
2019-05-16T02:02:29.374Z,1012.42
2019-05-16T02:03:29.363Z,1012.46
2019-05-16T02:04:29.362Z,1012.41
2019-05-16T02:05:29.345Z,1012.39
2019-05-16T02:06:29.331Z,1012.38
2019-05-16T02:07:29.319Z,1012.32
2019-05-16T02:08:29.317Z,1012.36
2019-05-16T02:09:29.309Z,1012.37
2019-05-16T02:10:29.294Z,1012.29
2019-05-16T02:11:29.276Z,1012.28
2019-05-16T02:12:29.264Z,1012.26
2019-05-16T02:13:29.255Z,1012.26
2019-05-16T02:14:29.251Z,1012.25
2019-05-16T02:15:29.233Z,1012.28
2019-05-16T02:16:29.226Z,1012.24
2019-05-16T02:17:29.213Z,1012.23
2019-05-16T02:18:29.199Z,1012.21
2019-05-16T02:19:29.197Z,1012.20
2019-05-16T02:20:29.179Z,1012.19
2019-05-16T02:21:29.167Z,1012.23
2019-05-16T02:22:29.157Z,1012.18
2019-05-16T02:23:29.145Z,1012.22
2019-05-16T02:24:29.143Z,1012.20
2019-05-16T02:25:29.123Z,1012.19
2019-05-16T02:26:29.117Z,1012.21
2019-05-16T02:27:29.103Z,1012.25
2019-05-16T02:28:33.673Z,1012.20
2019-05-16T02:29:30.090Z,1012.19
2019-05-16T02:30:31.535Z,1012.19
2019-05-16T02:31:31.310Z,1012.24
2019-05-16T02:32:31.221Z,1012.16
2019-05-16T02:33:31.696Z,1012.20
2019-05-16T02:34:30.754Z,1012.19
2019-05-16T02:35:31.108Z,1012.22
2019-05-16T02:36:31.370Z,1012.12
2019-05-16T02:37:34.109Z,1012.11
2019-05-16T02:38:31.667Z,1012.13
2019-05-16T02:39:30.533Z,1012.06
2019-05-16T02:40:31.250Z,1012.09
2019-05-16T02:41:31.146Z,1012.01
2019-05-16T02:42:31.012Z,1012.04
2019-05-16T02:43:31.276Z,1012.02
2019-05-16T02:44:31.954Z,1012.04
2019-05-16T02:45:32.165Z,1012.05
2019-05-16T02:46:30.809Z,1012.01
2019-05-16T02:47:31.481Z,1011.98
2019-05-16T02:48:31.717Z,1012.01
2019-05-16T02:49:30.643Z,1011.93
2019-05-16T02:50:31.613Z,1011.90
2019-05-16T02:51:31.515Z,1011.91
2019-05-16T02:52:31.565Z,1011.83
2019-05-16T02:53:31.007Z,1011.88
2019-05-16T02:54:31.413Z,1011.83
2019-05-16T02:55:30.767Z,1011.78
2019-05-16T02:56:31.667Z,1011.83
2019-05-16T02:57:31.607Z,1011.83
2019-05-16T02:58:30.700Z,1011.83
2019-05-16T02:59:30.701Z,1011.80
2019-05-16T03:00:30.908Z,1011.81
2019-05-16T03:01:31.626Z,1011.82
2019-05-16T03:02:31.261Z,1011.79
2019-05-16T03:03:31.474Z,1011.82
2019-05-16T03:04:30.585Z,1011.77
2019-05-16T03:05:30.571Z,1011.82
2019-05-16T03:06:31.778Z,1011.78
2019-05-16T03:07:37.641Z,1011.71
2019-05-16T03:08:31.972Z,1011.72
2019-05-16T03:09:30.479Z,1011.68
2019-05-16T03:10:31.102Z,1011.67
2019-05-16T03:11:31.479Z,1011.70
2019-05-16T03:12:30.954Z,1011.64
2019-05-16T03:13:31.070Z,1011.64
2019-05-16T03:14:31.595Z,1011.66
2019-05-16T03:15:30.960Z,1011.63
2019-05-16T03:16:31.574Z,1011.61
2019-05-16T03:17:31.618Z,1011.61
2019-05-16T03:18:31.050Z,1011.64
2019-05-16T03:19:31.119Z,1011.63
2019-05-16T03:20:31.339Z,1011.61
2019-05-16T03:21:30.808Z,1011.59
2019-05-16T03:22:31.255Z,1011.54
2019-05-16T03:23:30.855Z,1011.60
2019-05-16T03:24:31.028Z,1011.58
2019-05-16T03:25:31.036Z,1011.56
2019-05-16T03:26:31.278Z,1011.56
2019-05-16T03:27:30.535Z,1011.56
2019-05-16T03:28:30.714Z,1011.52
2019-05-16T03:29:30.837Z,1011.56
2019-05-16T03:30:34.182Z,1011.59
2019-05-16T03:31:33.876Z,1011.59
2019-05-16T03:32:33.957Z,1011.59
2019-05-16T03:33:34.984Z,1011.59
2019-05-16T03:34:34.530Z,1011.54
2019-05-16T03:35:33.849Z,1011.57
2019-05-16T03:36:34.201Z,1011.49
2019-05-16T03:37:30.758Z,1011.56
2019-05-16T03:38:30.761Z,1011.52
2019-05-16T03:39:31.170Z,1011.53
2019-05-16T03:40:31.427Z,1011.52
2019-05-16T03:41:30.875Z,1011.51
2019-05-16T03:42:30.859Z,1011.47
2019-05-16T03:43:30.952Z,1011.45
2019-05-16T03:44:31.487Z,1011.43
2019-05-16T03:45:31.505Z,1011.44
2019-05-16T03:46:30.908Z,1011.43
2019-05-16T03:47:31.060Z,1011.49
2019-05-16T03:48:31.247Z,1011.43
2019-05-16T03:49:31.262Z,1011.46
2019-05-16T03:50:30.661Z,1011.48
2019-05-16T03:51:30.708Z,1011.43
2019-05-16T03:52:30.771Z,1011.37
2019-05-16T03:53:31.445Z,1011.41
2019-05-16T03:54:31.168Z,1011.44
2019-05-16T03:55:28.158Z,1011.38
2019-05-16T03:56:30.672Z,1011.34
2019-05-16T03:57:30.677Z,1011.33
2019-05-16T03:58:30.799Z,1011.30
2019-05-16T03:59:31.201Z,1011.33
2019-05-16T04:00:31.553Z,1011.40
2019-05-16T04:01:31.115Z,1011.27
2019-05-16T04:02:30.852Z,1011.31
2019-05-16T04:03:30.071Z,1011.29
2019-05-16T04:04:30.815Z,1011.20
2019-05-16T04:05:28.039Z,1011.12
2019-05-16T04:06:30.977Z,1011.13
2019-05-16T04:07:31.405Z,1011.15
2019-05-16T04:08:31.032Z,1011.17
2019-05-16T04:09:31.330Z,1011.17
2019-05-16T04:10:30.738Z,1011.17
2019-05-16T04:11:31.797Z,1011.17
2019-05-16T04:12:30.671Z,1011.17
2019-05-16T04:13:31.106Z,1011.17
2019-05-16T04:14:30.824Z,1011.25
2019-05-16T04:15:30.943Z,1011.19
2019-05-16T04:16:31.043Z,1011.20
2019-05-16T04:17:27.910Z,1011.21
2019-05-16T04:18:27.894Z,1011.18
2019-05-16T04:19:31.176Z,1011.20
2019-05-16T04:20:30.502Z,1011.14
2019-05-16T04:21:31.895Z,1011.18
2019-05-16T04:22:27.852Z,1011.15
2019-05-16T04:23:30.986Z,1011.13
2019-05-16T04:24:27.828Z,1011.13
2019-05-16T04:25:30.923Z,1011.13
2019-05-16T04:26:30.584Z,1011.09
2019-05-16T04:27:30.769Z,1011.14
2019-05-16T04:28:27.787Z,1011.12
2019-05-16T04:29:31.280Z,1011.14
2019-05-16T04:30:30.995Z,1011.10
2019-05-16T04:31:30.567Z,1011.12
2019-05-16T04:32:27.740Z,1011.14
2019-05-16T04:33:30.614Z,1011.14
2019-05-16T04:34:30.860Z,1011.18
2019-05-16T04:35:27.713Z,1011.12
2019-05-16T04:36:27.707Z,1011.10
2019-05-16T04:37:31.155Z,1011.09
2019-05-16T04:38:36.402Z,1011.11
2019-05-16T04:39:31.916Z,1011.09
2019-05-16T04:40:30.951Z,1011.11
2019-05-16T04:41:27.650Z,1011.09
2019-05-16T04:42:30.753Z,1011.06
2019-05-16T04:43:31.322Z,1011.07
2019-05-16T04:44:30.692Z,1010.99
2019-05-16T04:45:27.597Z,1011.04
2019-05-16T04:46:27.616Z,1011.00
2019-05-16T04:47:27.575Z,1011.05
2019-05-16T04:48:30.706Z,1011.02
2019-05-16T04:49:27.554Z,1011.03
2019-05-16T04:50:27.546Z,1011.01
2019-05-16T04:51:30.494Z,1011.01
2019-05-16T04:52:30.506Z,1011.05
2019-05-16T04:53:27.525Z,1011.06
2019-05-16T04:54:30.580Z,1011.03
2019-05-16T04:55:27.488Z,1011.02
2019-05-16T04:56:30.653Z,1011.03
2019-05-16T04:57:27.477Z,1011.00
2019-05-16T04:58:27.465Z,1010.99
2019-05-16T04:59:27.443Z,1011.00
2019-05-16T05:00:27.436Z,1010.99
2019-05-16T05:01:30.531Z,1010.98
2019-05-16T05:02:30.641Z,1011.01
2019-05-16T05:03:27.402Z,1011.00
2019-05-16T05:04:30.284Z,1011.03
2019-05-16T05:05:27.380Z,1010.98
2019-05-16T05:06:27.367Z,1011.01
2019-05-16T05:07:27.368Z,1011.00
2019-05-16T05:08:30.506Z,1011.05
2019-05-16T05:09:27.335Z,1010.95
2019-05-16T05:10:27.325Z,1010.94
2019-05-16T05:11:28.101Z,1011.03
2019-05-16T05:12:27.317Z,1011.02
2019-05-16T05:13:27.297Z,1011.01
2019-05-16T05:14:27.283Z,1010.93
2019-05-16T05:15:27.271Z,1010.96
2019-05-16T05:16:27.259Z,1010.97
2019-05-16T05:17:27.258Z,1010.95
2019-05-16T05:18:30.061Z,1010.96
2019-05-16T05:19:27.225Z,1010.89
2019-05-16T05:20:30.218Z,1010.93
2019-05-16T05:21:27.207Z,1010.95
2019-05-16T05:22:27.201Z,1010.92
2019-05-16T05:23:27.181Z,1010.86
2019-05-16T05:24:27.170Z,1010.92
2019-05-16T05:25:27.164Z,1010.85
2019-05-16T05:26:27.149Z,1010.80
2019-05-16T05:27:27.146Z,1010.81
2019-05-16T05:28:27.126Z,1010.81
2019-05-16T05:29:27.114Z,1010.80
2019-05-16T05:30:27.104Z,1010.84
2019-05-16T05:31:27.106Z,1010.78
2019-05-16T05:32:27.094Z,1010.84
2019-05-16T05:33:27.077Z,1010.81
2019-05-16T05:34:27.059Z,1010.79
2019-05-16T05:35:27.050Z,1010.81
2019-05-16T05:36:27.038Z,1010.89
2019-05-16T05:37:27.041Z,1010.78
2019-05-16T05:38:27.019Z,1010.80
2019-05-16T05:39:27.008Z,1010.83
2019-05-16T05:40:26.994Z,1010.81
2019-05-16T05:41:26.982Z,1010.78
2019-05-16T05:42:26.982Z,1010.78
2019-05-16T05:43:26.964Z,1010.74
2019-05-16T05:44:26.955Z,1010.73
2019-05-16T05:45:26.938Z,1010.76
2019-05-16T05:46:26.944Z,1010.77
2019-05-16T05:47:26.926Z,1010.75
2019-05-16T05:48:26.910Z,1010.79
2019-05-16T05:49:26.895Z,1010.82
2019-05-16T05:50:26.885Z,1010.77
2019-05-16T05:51:26.874Z,1010.77
2019-05-16T05:52:26.893Z,1010.82
2019-05-16T05:53:26.870Z,1010.83
2019-05-16T05:54:26.845Z,1010.81
2019-05-16T05:55:26.834Z,1010.81
2019-05-16T05:56:26.820Z,1010.82
2019-05-16T05:57:26.816Z,1010.84
2019-05-16T05:58:26.806Z,1010.87
2019-05-16T05:59:26.793Z,1010.83
2019-05-16T06:00:26.775Z,1010.80
2019-05-16T06:01:26.767Z,1010.81
2019-05-16T06:02:26.754Z,1010.82
2019-05-16T06:03:26.751Z,1010.80
2019-05-16T06:04:26.737Z,1010.85
2019-05-16T06:05:26.721Z,1010.80
2019-05-16T06:06:26.711Z,1010.76
2019-05-16T06:07:26.698Z,1010.79
2019-05-16T06:08:26.697Z,1010.76
2019-05-16T06:09:32.013Z,1010.81
2019-05-16T06:10:27.664Z,1010.80
2019-05-16T06:11:26.661Z,1010.77
2019-05-16T06:12:26.645Z,1010.80
2019-05-16T06:13:26.643Z,1010.80
2019-05-16T06:14:26.621Z,1010.76
2019-05-16T06:15:26.610Z,1010.77
2019-05-16T06:16:26.601Z,1010.81
2019-05-16T06:17:26.589Z,1010.78
2019-05-16T06:18:26.590Z,1010.78
2019-05-16T06:19:26.567Z,1010.75
2019-05-16T06:20:26.558Z,1010.73
2019-05-16T06:21:26.545Z,1010.79
2019-05-16T06:22:26.536Z,1010.79
2019-05-16T06:23:26.532Z,1010.75
2019-05-16T06:24:26.514Z,1010.80
2019-05-16T06:25:26.503Z,1010.75
2019-05-16T06:26:26.495Z,1010.69
2019-05-16T06:27:26.479Z,1010.65
2019-05-16T06:28:26.477Z,1010.69
2019-05-16T06:29:26.459Z,1010.67
2019-05-16T06:30:26.446Z,1010.60
2019-05-16T06:31:26.434Z,1010.59
2019-05-16T06:32:26.424Z,1010.59
2019-05-16T06:33:26.422Z,1010.55
2019-05-16T06:34:26.400Z,1010.54
2019-05-16T06:35:26.390Z,1010.55
2019-05-16T06:36:26.378Z,1010.58
2019-05-16T06:37:26.368Z,1010.54
2019-05-16T06:38:26.366Z,1010.55
2019-05-16T06:39:39.257Z,1010.54
2019-05-16T06:40:29.438Z,1010.54
2019-05-16T06:41:26.326Z,1010.57
2019-05-16T06:42:26.312Z,1010.50
2019-05-16T06:43:26.311Z,1010.57
2019-05-16T06:44:26.290Z,1010.56
2019-05-16T06:45:26.280Z,1010.61
2019-05-16T06:46:26.268Z,1010.60
2019-05-16T06:47:26.266Z,1010.55
2019-05-16T06:48:26.257Z,1010.56
2019-05-16T06:49:26.237Z,1010.54
2019-05-16T06:50:26.224Z,1010.52
2019-05-16T06:51:26.214Z,1010.52
2019-05-16T06:52:26.209Z,1010.49
2019-05-16T06:53:26.201Z,1010.55
2019-05-16T06:54:26.182Z,1010.52
2019-05-16T06:55:26.170Z,1010.53
2019-05-16T06:56:26.159Z,1010.51
2019-05-16T06:57:26.147Z,1010.58
2019-05-16T06:58:26.146Z,1010.48
2019-05-16T06:59:26.127Z,1010.56
2019-05-16T07:00:26.122Z,1010.49
2019-05-16T07:01:26.103Z,1010.51
2019-05-16T07:02:30.660Z,1010.46
2019-05-16T07:03:27.104Z,1010.39
2019-05-16T07:04:26.071Z,1010.38
2019-05-16T07:05:26.060Z,1010.38
2019-05-16T07:06:47.617Z,1010.28
2019-05-16T07:07:27.036Z,1010.29
2019-05-16T07:08:26.027Z,1010.27
2019-05-16T07:09:26.024Z,1010.26
2019-05-16T07:10:26.008Z,1010.29
2019-05-16T07:11:25.999Z,1010.23
2019-05-16T07:12:25.983Z,1010.25
2019-05-16T07:13:25.973Z,1010.19
2019-05-16T07:14:28.346Z,1010.28
2019-05-16T07:15:26.950Z,1010.27
2019-05-16T07:16:25.954Z,1010.30
2019-05-16T07:17:25.931Z,1010.28
2019-05-16T07:18:25.934Z,1010.26
2019-05-16T07:19:25.919Z,1010.23
2019-05-16T07:20:25.895Z,1010.31
2019-05-16T07:21:25.883Z,1010.19
2019-05-16T07:22:25.872Z,1010.18
2019-05-16T07:23:25.861Z,1010.27
2019-05-16T07:24:25.858Z,1010.27
2019-05-16T07:25:25.840Z,1010.28
2019-05-16T07:26:25.830Z,1010.24
2019-05-16T07:27:25.819Z,1010.29
2019-05-16T07:28:25.806Z,1010.27
2019-05-16T07:29:25.809Z,1010.30
2019-05-16T07:30:25.785Z,1010.30
2019-05-16T07:31:25.777Z,1010.30
2019-05-16T07:32:25.766Z,1010.26
2019-05-16T07:33:25.750Z,1010.26
2019-05-16T07:34:25.748Z,1010.21
2019-05-16T07:35:25.729Z,1010.24
2019-05-16T07:36:25.718Z,1010.21
2019-05-16T07:37:25.707Z,1010.28
2019-05-16T07:38:25.696Z,1010.20
2019-05-16T07:39:25.697Z,1010.22
2019-05-16T07:40:26.913Z,1010.24
2019-05-16T07:41:25.666Z,1010.20
2019-05-16T07:42:25.651Z,1010.17
2019-05-16T07:43:25.647Z,1010.16
2019-05-16T07:44:25.637Z,1010.19
2019-05-16T07:45:25.618Z,1010.17
2019-05-16T07:46:25.608Z,1010.19
2019-05-16T07:47:25.596Z,1010.18
2019-05-16T07:48:25.586Z,1010.14
2019-05-16T07:49:25.582Z,1010.10
2019-05-16T07:50:25.570Z,1010.12
2019-05-16T07:51:25.552Z,1010.10
2019-05-16T07:52:25.541Z,1010.12
2019-05-16T07:53:25.530Z,1010.12
2019-05-16T07:54:25.531Z,1010.16
2019-05-16T07:55:25.509Z,1010.18
2019-05-16T07:56:25.496Z,1010.16
2019-05-16T07:57:25.486Z,1010.16
2019-05-16T07:58:25.479Z,1010.12
2019-05-16T07:59:25.473Z,1010.10
2019-05-16T08:00:43.413Z,1010.04
2019-05-16T08:01:26.443Z,1010.01
2019-05-16T08:02:25.432Z,1010.03
2019-05-16T08:03:25.421Z,1010.02
2019-05-16T08:04:25.416Z,1010.01
2019-05-16T08:05:25.401Z,1009.97
2019-05-16T08:06:25.388Z,1010.00
2019-05-16T08:07:25.376Z,1009.95
2019-05-16T08:08:25.365Z,1009.96
2019-05-16T08:09:25.363Z,1009.93
2019-05-16T08:10:38.001Z,1009.89
2019-05-16T08:11:26.331Z,1009.93
2019-05-16T08:12:26.774Z,1009.98
2019-05-16T08:13:25.316Z,1009.96
2019-05-16T08:14:25.310Z,1010.02
2019-05-16T08:15:25.294Z,1010.05
2019-05-16T08:16:25.279Z,1010.03
2019-05-16T08:17:25.269Z,1010.04
2019-05-16T08:18:25.261Z,1010.03
2019-05-16T08:19:25.467Z,1010.00
2019-05-16T08:20:25.243Z,1010.00
2019-05-16T08:21:27.639Z,1009.96
2019-05-16T08:22:25.213Z,1009.94
2019-05-16T08:23:25.202Z,1009.98
2019-05-16T08:24:25.194Z,1009.94
2019-05-16T08:25:25.193Z,1009.95
2019-05-16T08:26:25.194Z,1009.94
2019-05-16T08:27:25.196Z,1009.93
2019-05-16T08:28:25.148Z,1009.96
2019-05-16T08:29:25.139Z,1009.93
2019-05-16T08:30:25.138Z,1009.95
2019-05-16T08:31:25.119Z,1009.95
2019-05-16T08:32:25.106Z,1009.93
2019-05-16T08:33:25.097Z,1009.97
2019-05-16T08:34:25.084Z,1009.94
2019-05-16T08:35:25.084Z,1009.94
2019-05-16T08:36:25.063Z,1009.96
2019-05-16T08:38:26.039Z,1009.96
2019-05-16T08:39:25.032Z,1009.91
2019-05-16T08:40:25.028Z,1009.89
2019-05-16T08:41:25.009Z,1009.84
2019-05-16T08:42:25.004Z,1009.90
2019-05-16T08:43:24.990Z,1009.86
2019-05-16T08:44:24.978Z,1009.90
2019-05-16T08:45:24.976Z,1009.85
2019-05-16T08:46:24.956Z,1009.86
2019-05-16T08:47:24.947Z,1009.86
2019-05-16T08:48:24.934Z,1009.89
2019-05-16T08:49:24.924Z,1009.88
2019-05-16T08:50:11.714Z,1009.92
2019-05-16T08:50:24.922Z,1009.82
2019-05-16T08:51:24.902Z,1009.83
2019-05-16T08:52:24.896Z,1009.86
2019-05-16T08:53:24.882Z,1009.82
2019-05-16T08:54:24.870Z,1009.90
2019-05-16T08:55:24.866Z,1009.85
2019-05-16T08:56:24.848Z,1009.88
2019-05-16T08:57:27.865Z,1009.82
2019-05-16T08:58:25.844Z,1009.85
2019-05-16T08:59:24.858Z,1009.82
2019-05-16T09:00:24.818Z,1009.82
2019-05-16T09:01:24.856Z,1009.84
2019-05-16T09:02:33.559Z,1009.83
2019-05-16T09:03:25.777Z,1009.84
2019-05-16T09:04:25.315Z,1009.82
2019-05-16T09:05:24.765Z,1009.83
2019-05-16T09:06:24.740Z,1009.80
2019-05-16T09:07:24.748Z,1009.77
2019-05-16T09:08:24.720Z,1009.75
2019-05-16T09:09:41.471Z,1009.76
2019-05-16T09:11:35.654Z,1009.77
2019-05-16T09:12:27.815Z,1009.75
2019-05-16T09:13:27.619Z,1009.76
2019-05-16T09:14:27.462Z,1009.72
2019-05-16T09:15:27.106Z,1009.74
2019-05-16T09:16:27.277Z,1009.76
2019-05-16T09:17:27.302Z,1009.75
2019-05-16T09:18:24.612Z,1009.72
2019-05-16T09:19:24.600Z,1009.72
2019-05-16T09:20:24.592Z,1009.69
2019-05-16T09:21:27.143Z,1009.70
2019-05-16T09:22:24.567Z,1009.68
2019-05-16T09:23:26.682Z,1009.66
2019-05-16T09:24:27.220Z,1009.68
2019-05-16T09:25:27.266Z,1009.63
2019-05-16T09:26:27.453Z,1009.67
2019-05-16T09:27:27.121Z,1009.67
2019-05-16T09:28:28.109Z,1009.64
2019-05-16T09:29:27.216Z,1009.69
2019-05-16T09:30:27.266Z,1009.63
2019-05-16T09:31:27.275Z,1009.66
2019-05-16T09:32:27.521Z,1009.63
2019-05-16T09:33:26.770Z,1009.65
2019-05-16T09:34:24.440Z,1009.63
2019-05-16T09:35:24.428Z,1009.60
2019-05-16T09:36:24.425Z,1009.55
2019-05-16T09:37:26.692Z,1009.54
2019-05-16T09:38:24.397Z,1009.50
2019-05-16T09:39:24.385Z,1009.50
2019-05-16T09:40:24.376Z,1009.50
2019-05-16T09:41:27.083Z,1009.47
2019-05-16T09:42:24.353Z,1009.46
2019-05-16T09:43:24.341Z,1009.50
2019-05-16T09:44:24.333Z,1009.50
2019-05-16T09:45:24.324Z,1009.47
2019-05-16T09:46:24.319Z,1009.46
2019-05-16T09:47:24.299Z,1009.48
2019-05-16T09:48:27.699Z,1009.45
2019-05-16T09:49:25.966Z,1009.49
2019-05-16T09:50:26.473Z,1009.45
2019-05-16T09:51:26.921Z,1009.47
2019-05-16T09:52:24.245Z,1009.50
2019-05-16T09:53:24.233Z,1009.51
2019-05-16T09:54:24.223Z,1009.54
2019-05-16T09:55:24.212Z,1009.59
2019-05-16T09:56:24.210Z,1009.55
2019-05-16T09:57:24.197Z,1009.56
2019-05-16T09:58:24.183Z,1009.53
2019-05-16T09:59:26.212Z,1009.56
2019-05-16T10:00:26.724Z,1009.57
2019-05-16T10:01:24.156Z,1009.57
2019-05-16T10:02:24.140Z,1009.57
2019-05-16T10:03:24.128Z,1009.53
2019-05-16T10:04:26.573Z,1009.58
2019-05-16T10:05:26.389Z,1009.54
2019-05-16T10:06:24.103Z,1009.56
2019-05-16T10:07:27.997Z,1009.55
2019-05-16T10:08:26.539Z,1009.49
2019-05-16T10:09:40.232Z,1009.55
2019-05-16T10:10:26.270Z,1009.52
2019-05-16T10:11:30.231Z,1009.50
2019-05-16T10:12:26.283Z,1009.46
2019-05-16T10:13:24.020Z,1009.43
2019-05-16T10:14:24.008Z,1009.43
2019-05-16T10:15:24.001Z,1009.39
2019-05-16T10:16:23.996Z,1009.41
2019-05-16T10:17:23.976Z,1009.34
2019-05-16T10:18:23.964Z,1009.32
2019-05-16T10:19:23.957Z,1009.26
2019-05-16T10:20:23.943Z,1009.28
2019-05-16T10:21:23.941Z,1009.32
2019-05-16T10:22:23.924Z,1009.36
2019-05-16T10:23:23.910Z,1009.33
2019-05-16T10:24:26.698Z,1009.31
2019-05-16T10:25:23.887Z,1009.33
2019-05-16T10:26:27.480Z,1009.28
2019-05-16T10:27:23.865Z,1009.37
2019-05-16T10:28:23.857Z,1009.33
2019-05-16T10:29:23.844Z,1009.32
2019-05-16T10:30:23.833Z,1009.33
2019-05-16T10:31:40.471Z,1009.39
2019-05-16T10:32:26.982Z,1009.44
2019-05-16T10:33:23.801Z,1009.38
2019-05-16T10:34:23.788Z,1009.41
2019-05-16T10:35:23.779Z,1009.39
2019-05-16T10:36:24.079Z,1009.45
2019-05-16T10:37:23.756Z,1009.49
2019-05-16T10:38:23.747Z,1009.49
2019-05-16T10:39:23.734Z,1009.42
2019-05-16T10:40:23.721Z,1009.47
2019-05-16T10:41:23.712Z,1009.45
2019-05-16T10:42:28.774Z,1009.41
2019-05-16T10:43:26.479Z,1009.43
2019-05-16T10:44:23.682Z,1009.37
2019-05-16T10:45:23.669Z,1009.40
2019-05-16T10:46:23.656Z,1009.35
2019-05-16T10:47:23.657Z,1009.27
2019-05-16T10:48:23.634Z,1009.24
2019-05-16T10:49:36.572Z,1009.22
2019-05-16T10:50:24.631Z,1009.20
2019-05-16T10:51:24.040Z,1009.16
2019-05-16T10:52:23.598Z,1009.17
2019-05-16T10:53:51.437Z,1009.17
2019-05-16T10:54:24.599Z,1009.18
2019-05-16T10:55:23.704Z,1009.14
2019-05-16T10:56:23.554Z,1009.16
2019-05-16T10:57:23.654Z,1009.15
2019-05-16T10:58:36.427Z,1009.15
2019-05-16T11:00:02.038Z,1009.15
2019-05-16T11:00:51.501Z,1009.17
2019-05-16T11:01:28.709Z,1009.12
2019-05-16T11:02:24.537Z,1009.14
2019-05-16T11:03:23.489Z,1009.11
2019-05-16T11:04:29.395Z,1009.15
2019-05-16T11:05:30.301Z,1009.15
2019-05-16T11:06:28.684Z,1009.10
2019-05-16T11:07:23.436Z,1009.12
2019-05-16T11:08:23.414Z,1009.13
2019-05-16T11:09:23.403Z,1009.12
2019-05-16T11:10:23.442Z,1009.19
2019-05-16T11:11:23.385Z,1009.17
2019-05-16T11:12:23.382Z,1009.18
2019-05-16T11:13:23.371Z,1009.20
2019-05-16T11:14:23.350Z,1009.21
2019-05-16T11:15:23.338Z,1009.22
2019-05-16T11:16:23.333Z,1009.22
2019-05-16T11:17:23.326Z,1009.24
2019-05-16T11:18:23.306Z,1009.18
2019-05-16T11:19:24.631Z,1009.25
2019-05-16T11:20:23.300Z,1009.24
2019-05-16T11:21:23.271Z,1009.20
2019-05-16T11:22:23.273Z,1009.18
2019-05-16T11:23:24.270Z,1009.26
2019-05-16T11:24:23.257Z,1009.28
2019-05-16T11:25:28.889Z,1009.27
2019-05-16T11:26:24.216Z,1009.23
2019-05-16T11:27:23.214Z,1009.28
2019-05-16T11:28:23.200Z,1009.27
2019-05-16T11:29:23.183Z,1009.28
2019-05-16T11:30:23.190Z,1009.17
2019-05-16T11:31:23.163Z,1009.14
2019-05-16T11:32:23.169Z,1009.19
2019-05-16T11:33:23.139Z,1009.16
2019-05-16T11:34:23.128Z,1009.17
2019-05-16T11:35:23.119Z,1009.16
2019-05-16T11:36:23.106Z,1009.18
2019-05-16T11:37:23.101Z,1009.15
2019-05-16T11:38:23.093Z,1009.11
2019-05-16T11:39:23.075Z,1009.16
2019-05-16T11:40:23.063Z,1009.12
2019-05-16T11:41:23.066Z,1009.16
2019-05-16T11:42:23.057Z,1009.19
2019-05-16T11:43:23.040Z,1009.14
2019-05-16T11:44:23.019Z,1009.17
2019-05-16T11:45:23.008Z,1009.17
2019-05-16T11:46:22.996Z,1009.09
2019-05-16T11:47:22.986Z,1009.13
2019-05-16T11:48:25.272Z,1009.16
2019-05-16T11:49:23.962Z,1009.17
2019-05-16T11:50:22.960Z,1009.15
2019-05-16T11:51:22.948Z,1009.13
2019-05-16T11:52:22.930Z,1009.03
2019-05-16T11:53:22.940Z,1009.03
2019-05-16T11:54:22.909Z,1009.03
2019-05-16T11:55:22.994Z,1009.00
2019-05-16T11:56:22.888Z,1009.04
2019-05-16T11:57:22.875Z,1009.03
2019-05-16T11:58:22.878Z,1009.02
2019-05-16T11:59:22.855Z,1009.01
2019-05-16T12:00:22.847Z,1008.99
2019-05-16T12:01:22.833Z,1008.99
2019-05-16T12:02:22.820Z,1008.99
2019-05-16T12:03:22.820Z,1009.06
2019-05-16T12:04:22.806Z,1008.99
2019-05-16T12:05:22.789Z,1009.05
2019-05-16T12:06:22.777Z,1009.00